Time;durP1;ratioP1;P1;durP2;ratioP2;P2;SDS_P1;SDS_P2;PMS_P1;PMS_P2;Temp;Humidity;BMP_temperature;BMP_pressure;BME280_temperature;BME280_humidity;BME280_pressure;Samples;Min_cycle;Max_cycle;Signal;HPM_P1;HPM_P2
2023/09/05 00:01:42;;;;;;;;;5.67;5.67;;;;;23.01;72.49;101388.75;5102617;27;46288;-76
2023/09/05 00:04:07;;;;;;;;;5.00;5.00;;;;;23.03;73.01;101405.66;5101640;27;45196;-75
2023/09/05 00:06:33;;;;;;;;;6.67;5.67;;;;;22.99;73.19;101401.53;5105866;27;45439;-76
2023/09/05 00:08:58;;;;;;;;;4.00;4.00;;;;;22.91;73.84;101390.56;5111694;27;45290;-75
2023/09/05 00:11:25;;;;;;;;;5.67;5.00;;;;;22.81;72.76;101373.47;5107474;27;59153;-75
2023/09/05 00:13:50;;;;;;;;;3.00;3.00;;;;;22.91;73.31;101398.66;5115263;27;45307;-76
2023/09/05 00:16:16;;;;;;;;;5.33;5.00;;;;;22.79;74.23;101392.53;5119720;27;50728;-75
2023/09/05 00:18:43;;;;;;;;;4.00;4.00;;;;;22.83;74.32;101409.28;5106902;27;49296;-76
2023/09/05 00:21:09;;;;;;;;;5.67;4.67;;;;;22.79;73.57;101397.06;5106785;27;45707;-75
2023/09/05 00:23:39;;;;;;;;;2.67;2.00;;;;;22.75;73.96;101407.25;5116387;27;45487;-75
2023/09/05 00:26:04;;;;;;;;;4.67;4.67;;;;;22.66;74.60;101391.91;5101906;27;45487;-75
2023/09/05 00:28:29;;;;;;;;;5.33;5.00;;;;;22.57;74.39;101373.81;5104070;27;47931;-75
2023/09/05 00:30:55;;;;;;;;;5.00;5.00;;;;;22.63;75.52;101396.69;5103622;27;53262;-75
2023/09/05 00:33:20;;;;;;;;;6.33;5.00;;;;;22.60;75.31;101397.81;5104235;27;56019;-76
2023/09/05 00:35:45;;;;;;;;;5.00;5.00;;;;;22.53;76.28;101396.63;5107021;27;45456;-75
2023/09/05 00:38:11;;;;;;;;;6.33;5.00;;;;;22.30;75.33;101352.81;5101180;27;45266;-75
2023/09/05 00:40:36;;;;;;;;;6.00;5.00;;;;;22.36;75.91;101366.75;5103756;27;46566;-76
2023/09/05 00:43:01;;;;;;;;;7.00;4.00;;;;;22.45;75.49;101382.97;5115393;27;45312;-76
2023/09/05 00:45:27;;;;;;;;;4.00;4.00;;;;;22.42;76.27;101385.91;5113019;27;45393;-75
2023/09/05 00:47:52;;;;;;;;;5.00;5.00;;;;;22.37;76.31;101390.03;5104470;27;45387;-76
2023/09/05 00:50:18;;;;;;;;;4.33;4.00;;;;;22.36;77.50;101393.69;5105805;27;45360;-75
2023/09/05 00:52:46;;;;;;;;;7.00;6.00;;;;;22.27;77.12;101380.03;5109091;27;45507;-75
2023/09/05 00:55:12;;;;;;;;;4.67;4.67;;;;;22.22;75.47;101373.31;5120035;27;45286;-75
2023/09/05 00:57:38;;;;;;;;;7.00;6.00;;;;;22.27;76.51;101382.75;5114872;27;45266;-75
2023/09/05 01:00:05;;;;;;;;;5.33;4.67;;;;;22.24;76.83;101385.69;5115542;27;45314;-75
2023/09/05 01:02:31;;;;;;;;;5.33;5.33;;;;;22.21;77.46;101385.97;5113476;27;45420;-75
2023/09/05 01:04:56;;;;;;;;;6.00;3.33;;;;;22.20;76.10;101388.78;5106208;27;45364;-76
2023/09/05 01:07:59;;;;;;;;;4.67;4.33;;;;;22.12;76.58;101372.44;5109723;27;45592;-75
2023/09/05 01:10:31;;;;;;;;;4.67;4.67;;;;;22.18;75.94;101386.25;5109111;27;46183;-75
2023/09/05 01:13:00;;;;;;;;;5.67;4.00;;;;;22.16;75.90;101382.81;5114370;27;45464;-76
2023/09/05 01:15:25;;;;;;;;;6.67;4.00;;;;;22.09;76.74;101378.94;5115962;27;45329;-76
2023/09/05 01:17:54;;;;;;;;;4.00;4.00;;;;;22.12;78.28;101386.75;5108818;27;45479;-75
2023/09/05 01:20:26;;;;;;;;;6.33;6.33;;;;;22.10;79.44;101382.47;5115475;27;45480;-75
2023/09/05 01:23:17;;;;;;;;;7.67;5.00;;;;;22.03;78.12;101387.53;5114417;27;45431;-76
2023/09/05 01:25:43;;;;;;;;;5.00;5.00;;;;;21.99;78.90;101378.00;5108243;27;45199;-76
2023/09/05 01:28:11;;;;;;;;;5.00;5.00;;;;;21.94;78.29;101372.16;5114551;27;45386;-76
2023/09/05 01:30:40;;;;;;;;;2.33;2.00;;;;;21.88;79.26;101369.13;5102434;27;45354;-76
2023/09/05 01:33:05;;;;;;;;;8.67;5.67;;;;;21.92;79.39;101376.84;5115798;27;45359;-76
2023/09/05 01:35:31;;;;;;;;;7.67;6.00;;;;;21.80;81.30;101362.53;5110123;27;45290;-75
2023/09/05 01:37:57;;;;;;;;;5.00;4.67;;;;;21.76;80.47;101357.53;5113295;27;45402;-76
2023/09/05 01:40:22;;;;;;;;;5.00;5.00;;;;;21.82;79.78;101370.50;5125466;27;48540;-76
2023/09/05 01:42:48;;;;;;;;;5.00;4.00;;;;;21.79;79.17;101378.84;5117448;27;45237;-75
2023/09/05 01:45:13;;;;;;;;;7.00;6.67;;;;;21.75;80.11;101367.47;5102113;27;45281;-76
2023/09/05 01:47:38;;;;;;;;;5.67;5.33;;;;;21.73;80.07;101366.72;5112035;27;45564;-76
2023/09/05 01:50:04;;;;;;;;;4.33;4.33;;;;;21.66;80.53;101362.03;5102935;27;47062;-75
2023/09/05 01:52:29;;;;;;;;;4.33;4.33;;;;;21.63;80.44;101359.56;5113168;27;45423;-75
2023/09/05 01:54:55;;;;;;;;;6.00;5.00;;;;;21.66;79.69;101364.72;5109271;27;45591;-75
2023/09/05 01:57:20;;;;;;;;;4.33;4.00;;;;;21.57;79.41;101341.22;5131297;27;51586;-75
2023/09/05 01:59:45;;;;;;;;;6.00;6.00;;;;;21.55;78.26;101345.91;5115308;27;45457;-76
2023/09/05 02:02:10;;;;;;;;;4.67;4.67;;;;;21.55;79.77;101343.22;5118497;27;46225;-75
2023/09/05 02:04:36;;;;;;;;;4.00;4.00;;;;;21.54;78.26;101347.75;5130345;27;45488;-75
2023/09/05 02:07:01;;;;;;;;;4.00;4.00;;;;;21.59;79.46;101350.91;5116441;27;45513;-75
2023/09/05 02:09:26;;;;;;;;;5.33;5.33;;;;;21.60;80.44;101354.44;5107308;27;46390;-75
2023/09/05 02:11:52;;;;;;;;;6.00;4.00;;;;;21.57;79.65;101346.63;5105531;27;45379;-75
2023/09/05 02:14:17;;;;;;;;;6.00;5.00;;;;;21.55;80.39;101357.53;5113373;27;45371;-75
2023/09/05 02:16:42;;;;;;;;;8.00;7.00;;;;;21.50;80.00;101342.75;5117636;27;45512;-75
2023/09/05 02:19:08;;;;;;;;;4.00;4.00;;;;;21.47;79.37;101337.59;5112476;27;53298;-76
2023/09/05 02:21:33;;;;;;;;;5.33;5.33;;;;;21.44;80.77;101348.63;5109999;27;45612;-75
2023/09/05 02:23:58;;;;;;;;;5.00;4.00;;;;;21.34;80.00;101323.47;5100372;27;45482;-75
2023/09/05 02:26:23;;;;;;;;;6.00;5.00;;;;;21.42;79.17;101348.78;5110493;27;53668;-75
2023/09/05 02:28:49;;;;;;;;;7.00;6.00;;;;;21.44;79.48;101359.41;5104447;27;55879;-75
2023/09/05 02:31:14;;;;;;;;;7.33;5.00;;;;;21.42;80.91;101358.69;5114765;27;45291;-76
2023/09/05 02:33:39;;;;;;;;;5.67;5.67;;;;;21.19;80.59;101325.63;5117575;27;45317;-75
2023/09/05 02:36:07;;;;;;;;;8.33;6.33;;;;;21.36;80.38;101356.50;5109900;27;45427;-76
2023/09/05 02:38:32;;;;;;;;;10.00;7.67;;;;;21.30;81.25;101355.19;5107298;27;45389;-75
2023/09/05 02:40:57;;;;;;;;;8.67;6.33;;;;;21.29;81.17;101348.09;5116037;27;45301;-75
2023/09/05 02:43:23;;;;;;;;;5.67;5.67;;;;;21.18;81.84;101345.44;5115592;27;45281;-75
2023/09/05 02:45:52;;;;;;;;;6.67;6.00;;;;;21.22;81.25;101349.59;5108773;27;45201;-75
2023/09/05 02:48:17;;;;;;;;;6.00;6.00;;;;;21.21;82.69;101347.88;5113402;27;46384;-76
2023/09/05 02:50:42;;;;;;;;;7.00;5.00;;;;;21.13;81.58;101342.28;5107367;27;45271;-76
2023/09/05 02:53:08;;;;;;;;;8.33;6.00;;;;;21.16;81.42;101352.78;5110008;27;45705;-75
2023/09/05 02:55:34;;;;;;;;;1.00;1.00;;;;;21.12;82.02;101341.41;5111155;27;47147;-75
2023/09/05 02:58:00;;;;;;;;;6.00;5.00;;;;;21.04;80.52;101333.06;5115723;27;45926;-76
2023/09/05 03:00:25;;;;;;;;;5.67;5.67;;;;;20.95;83.62;101317.72;5112846;27;45291;-75
2023/09/05 03:02:52;;;;;;;;;6.00;6.00;;;;;21.09;82.55;101352.44;5101562;27;45468;-76
2023/09/05 03:05:18;;;;;;;;;5.33;4.33;;;;;20.99;82.76;101337.13;5116141;27;45339;-75
2023/09/05 03:07:45;;;;;;;;;5.00;5.00;;;;;21.00;83.45;101333.47;5112212;27;46320;-76
2023/09/05 03:10:10;;;;;;;;;5.00;5.00;;;;;20.96;83.47;101335.56;5113447;27;45390;-76
2023/09/05 03:12:35;;;;;;;;;6.33;6.33;;;;;20.94;83.94;101345.56;5105682;27;45367;-75
2023/09/05 03:15:01;;;;;;;;;6.00;6.00;;;;;20.98;83.23;101356.94;5115548;27;45236;-76
2023/09/05 03:17:26;;;;;;;;;7.00;6.00;;;;;20.88;83.28;101340.69;5106881;27;45438;-75
2023/09/05 03:19:51;;;;;;;;;5.33;5.33;;;;;20.77;82.86;101329.97;5116549;27;45365;-75
2023/09/05 03:22:17;;;;;;;;;9.00;7.33;;;;;20.84;83.73;101331.19;5108104;27;45348;-75
2023/09/05 03:24:42;;;;;;;;;6.00;6.00;;;;;20.84;83.11;101324.97;5111239;27;45645;-75
2023/09/05 03:27:07;;;;;;;;;9.00;7.67;;;;;20.80;83.34;101316.28;5113028;27;45571;-75
2023/09/05 03:29:33;;;;;;;;;8.50;6.50;;;;;20.84;83.16;101335.72;5106217;27;45393;-75
2023/09/05 03:31:58;;;;;;;;;9.00;7.00;;;;;20.78;83.54;101316.41;5119597;27;45345;-75
2023/09/05 03:34:24;;;;;;;;;5.00;5.00;;;;;20.86;83.98;101334.59;5115372;27;45239;-76
2023/09/05 03:36:49;;;;;;;;;7.67;7.67;;;;;20.75;82.75;101326.53;5108208;27;45872;-76
2023/09/05 03:39:15;;;;;;;;;11.33;8.00;;;;;20.78;83.04;101337.03;5124590;27;45388;-75
2023/09/05 03:41:41;;;;;;;;;9.00;7.33;;;;;20.81;83.64;101335.97;5113771;27;45130;-75
2023/09/05 03:44:07;;;;;;;;;8.33;7.33;;;;;20.80;85.38;101343.16;5111363;27;45237;-75
2023/09/05 03:46:32;;;;;;;;;8.33;7.33;;;;;20.72;83.50;101326.78;5117681;27;45608;-75
2023/09/05 03:48:57;;;;;;;;;8.00;8.00;;;;;20.75;84.81;101322.03;5123397;27;45565;-75
2023/09/05 03:51:23;;;;;;;;;8.00;5.33;;;;;20.73;83.90;101309.69;5114557;27;45919;-75
2023/09/05 03:53:49;;;;;;;;;9.33;8.67;;;;;20.75;83.30;101311.28;5121504;27;45491;-75
2023/09/05 03:56:15;;;;;;;;;8.00;7.00;;;;;20.74;82.64;101308.72;5119201;27;46780;-75
2023/09/05 03:58:40;;;;;;;;;6.33;5.67;;;;;20.73;84.05;101307.00;5102717;27;45360;-76
2023/09/05 04:01:13;;;;;;;;;6.00;6.00;;;;;20.69;82.95;101292.97;5114523;27;45382;-76
2023/09/05 04:03:38;;;;;;;;;8.00;8.00;;;;;20.63;83.56;101289.91;5104561;27;45607;-75
2023/09/05 04:06:03;;;;;;;;;6.00;5.67;;;;;20.53;84.15;101273.69;5113457;27;51267;-76
2023/09/05 04:08:28;;;;;;;;;5.00;5.00;;;;;20.52;83.75;101277.34;5111752;27;45293;-75
2023/09/05 04:10:59;;;;;;;;;9.33;9.00;;;;;20.55;84.24;101276.25;5109914;27;45308;-76
2023/09/05 04:13:25;;;;;;;;;8.00;6.67;;;;;20.59;85.02;101292.00;5120846;27;45337;-75
2023/09/05 04:15:51;;;;;;;;;10.33;6.00;;;;;20.55;83.50;101290.53;5118814;27;47273;-75
2023/09/05 04:18:17;;;;;;;;;6.00;6.00;;;;;20.56;85.46;101299.44;5106059;27;45338;-75
2023/09/05 04:20:42;;;;;;;;;8.00;7.33;;;;;20.48;85.73;101294.72;5114881;27;45371;-76
2023/09/05 04:23:07;;;;;;;;;6.67;6.00;;;;;20.53;85.11;101314.00;5120540;27;46729;-75
2023/09/05 04:25:39;;;;;;;;;7.67;7.00;;;;;20.50;87.73;101314.25;5104638;27;45453;-75
2023/09/05 04:28:05;;;;;;;;;7.00;7.00;;;;;20.44;86.22;101316.56;5112215;27;45405;-75
2023/09/05 04:30:30;;;;;;;;;7.00;7.00;;;;;20.45;87.11;101321.81;5112475;27;45374;-76
2023/09/05 04:32:57;;;;;;;;;8.00;7.33;;;;;20.39;87.98;101327.69;5118904;27;52333;-76
2023/09/05 04:35:22;;;;;;;;;7.33;7.00;;;;;20.36;86.75;101329.75;5114380;27;46229;-76
2023/09/05 04:37:48;;;;;;;;;12.00;8.33;;;;;20.33;88.02;101330.84;5116436;27;45339;-77
2023/09/05 04:40:13;;;;;;;;;7.33;7.33;;;;;20.30;87.51;101338.31;5113113;27;45299;-75
2023/09/05 04:42:40;;;;;;;;;7.67;7.67;;;;;20.23;89.06;101333.38;5106465;27;45438;-75
2023/09/05 04:45:07;;;;;;;;;5.67;5.67;;;;;20.25;89.79;101347.53;5120118;27;47069;-77
2023/09/05 04:47:33;;;;;;;;;9.00;8.00;;;;;20.13;89.08;101332.41;5114569;27;45371;-75
2023/09/05 04:49:59;;;;;;;;;7.67;7.00;;;;;20.19;89.28;101352.53;5114870;27;45486;-75
2023/09/05 04:52:27;;;;;;;;;6.33;6.33;;;;;20.17;90.12;101350.00;5103196;27;45557;-75
2023/09/05 04:54:54;;;;;;;;;8.00;7.67;;;;;20.14;91.74;101360.13;5121524;27;46387;-77
2023/09/05 04:57:19;;;;;;;;;6.33;6.33;;;;;20.11;91.65;101355.84;5119383;27;45333;-77
2023/09/05 04:59:49;;;;;;;;;10.00;6.67;;;;;20.10;91.82;101369.38;5114546;27;45309;-75
2023/09/05 05:02:15;;;;;;;;;10.33;8.00;;;;;20.08;91.99;101371.34;5106852;27;45330;-77
2023/09/05 05:04:41;;;;;;;;;7.00;6.67;;;;;19.99;92.10;101366.69;5117969;27;46240;-75
2023/09/05 05:07:10;;;;;;;;;1.00;0.00;;;;;20.01;93.41;101380.84;5107937;27;45860;-77
2023/09/05 05:09:36;;;;;;;;;11.00;8.67;;;;;19.91;93.73;101372.66;5117885;27;45480;-75
2023/09/05 05:12:01;;;;;;;;;10.33;9.00;;;;;19.91;94.83;101371.78;5113501;27;45331;-77
2023/09/05 05:14:28;;;;;;;;;7.00;7.00;;;;;19.84;94.58;101366.03;5103226;27;46555;-78
2023/09/05 05:16:53;;;;;;;;;7.67;7.00;;;;;19.88;94.88;101372.88;5115317;27;45433;-75
2023/09/05 05:19:20;;;;;;;;;12.00;11.00;;;;;19.86;94.49;101377.50;5113405;27;45459;-75
2023/09/05 05:21:46;;;;;;;;;6.33;6.33;;;;;19.75;96.19;101364.91;5106187;27;45373;-75
2023/09/05 05:24:11;;;;;;;;;7.00;7.00;;;;;19.72;96.09;101361.59;5114359;27;46293;-75
2023/09/05 05:26:36;;;;;;;;;9.33;8.00;;;;;19.81;94.63;101379.69;5110767;27;45437;-78
2023/09/05 05:29:02;;;;;;;;;9.00;9.00;;;;;19.83;95.42;101385.78;5104080;27;45384;-78
2023/09/05 05:31:28;;;;;;;;;7.33;7.33;;;;;19.84;95.36;101386.66;5111970;27;45517;-75
2023/09/05 05:33:54;;;;;;;;;7.00;7.00;;;;;19.79;96.70;101376.28;5109642;27;45203;-75
2023/09/05 05:36:19;;;;;;;;;9.00;8.00;;;;;19.75;96.97;101364.06;5119467;27;45447;-76
2023/09/05 05:38:44;;;;;;;;;9.00;8.00;;;;;19.78;97.36;101374.56;5130693;27;45279;-77
2023/09/05 05:41:10;;;;;;;;;8.67;7.67;;;;;19.73;97.12;101366.84;5131029;27;45459;-79
2023/09/05 05:43:36;;;;;;;;;9.67;9.67;;;;;19.71;94.96;101359.88;5127197;27;45224;-79
2023/09/05 05:46:02;;;;;;;;;10.67;8.00;;;;;19.88;95.11;101380.94;5121913;27;45270;-78
2023/09/05 05:48:27;;;;;;;;;11.33;9.67;;;;;19.52;95.87;101322.00;5129754;27;45347;-78
2023/09/05 05:50:53;;;;;;;;;10.00;10.00;;;;;19.90;95.94;101370.91;5120475;27;44884;-79
2023/09/05 05:53:20;;;;;;;;;8.67;8.67;;;;;19.99;97.06;101380.13;5130688;27;46272;-75
2023/09/05 05:55:46;;;;;;;;;10.00;9.00;;;;;20.01;95.14;101370.09;5125662;27;45595;-78
2023/09/05 05:58:13;;;;;;;;;12.67;9.00;;;;;19.97;92.51;101374.00;5123308;27;45424;-79
2023/09/05 06:00:50;;;;;;;;;11.67;10.33;;;;;19.92;94.13;101354.72;5116435;27;45420;-78
2023/09/05 06:03:16;;;;;;;;;11.00;9.00;;;;;19.97;93.99;101360.56;5127702;27;45275;-78
2023/09/05 06:05:41;;;;;;;;;7.67;7.67;;;;;20.12;96.81;101389.75;5133330;27;45309;-77
2023/09/05 06:08:07;;;;;;;;;7.33;7.33;;;;;20.16;92.16;101383.19;5125849;27;45311;-77
2023/09/05 06:10:32;;;;;;;;;8.00;7.00;;;;;20.12;93.46;101368.28;5124419;27;45768;-77
2023/09/05 06:12:57;;;;;;;;;8.33;8.33;;;;;20.24;94.40;101377.22;5128864;27;45370;-78
2023/09/05 06:15:23;;;;;;;;;11.00;9.33;;;;;20.29;92.73;101380.44;5139203;27;44854;-77
2023/09/05 06:17:48;;;;;;;;;9.33;9.33;;;;;20.20;93.61;101357.81;5135764;27;44831;-76
2023/09/05 06:20:14;;;;;;;;;7.33;7.33;;;;;20.40;90.72;101406.47;5132502;27;44778;-76
2023/09/05 06:22:39;;;;;;;;;10.00;8.33;;;;;20.37;92.30;101394.13;5128687;27;45880;-77
2023/09/05 06:25:05;;;;;;;;;10.67;9.00;;;;;20.49;92.13;101403.03;5135794;27;45261;-76
2023/09/05 06:27:31;;;;;;;;;10.67;9.00;;;;;20.55;92.07;101407.97;5146149;27;45266;-76
2023/09/05 06:29:56;;;;;;;;;8.67;7.67;;;;;20.52;94.08;101394.72;5124478;27;44896;-76
2023/09/05 06:32:22;;;;;;;;;10.67;8.67;;;;;20.65;88.35;101409.78;5131040;27;46176;-77
2023/09/05 06:34:47;;;;;;;;;10.00;9.00;;;;;20.71;89.16;101405.75;5128089;27;45290;-77
2023/09/05 06:37:13;;;;;;;;;12.33;9.00;;;;;20.79;88.12;101404.16;5131859;27;45375;-77
2023/09/05 06:39:38;;;;;;;;;8.33;7.33;;;;;20.87;87.85;101400.00;5134362;27;45229;-77
2023/09/05 06:42:04;;;;;;;;;10.67;8.00;;;;;20.85;88.75;101383.13;5131773;27;60344;-77
2023/09/05 06:44:29;;;;;;;;;10.33;9.00;;;;;20.98;90.02;101402.66;5122600;27;45243;-77
2023/09/05 06:46:55;;;;;;;;;14.00;13.33;;;;;21.03;87.01;101400.47;5117621;27;45405;-76
2023/09/05 06:49:20;;;;;;;;;8.67;7.00;;;;;21.00;87.28;101385.44;5132415;27;45274;-77
2023/09/05 06:51:45;;;;;;;;;10.00;10.00;;;;;21.21;85.26;101404.38;5123868;27;46187;-77
2023/09/05 06:54:11;;;;;;;;;11.00;9.00;;;;;21.26;85.08;101397.66;5133228;27;45295;-78
2023/09/05 06:56:36;;;;;;;;;7.67;7.67;;;;;21.32;83.51;101398.09;5125321;27;45240;-77
2023/09/05 06:59:01;;;;;;;;;9.67;9.33;;;;;21.33;82.59;101387.22;5123480;27;45664;-77
2023/09/05 07:01:28;;;;;;;;;10.33;10.33;;;;;21.45;83.47;101388.91;5119143;27;46604;-77
2023/09/05 07:03:53;;;;;;;;;12.00;10.67;;;;;21.56;84.15;101385.31;5129021;27;45392;-77
2023/09/05 07:06:19;;;;;;;;;9.67;8.00;;;;;21.66;82.86;101392.47;5120403;27;45348;-77
2023/09/05 07:08:46;;;;;;;;;12.00;11.00;;;;;21.75;83.05;101393.53;5120728;27;45891;-76
2023/09/05 07:11:11;;;;;;;;;8.00;8.00;;;;;21.84;82.74;101395.44;5128604;27;45428;-76
2023/09/05 07:13:36;;;;;;;;;10.00;10.00;;;;;21.90;81.53;101408.44;5137982;27;45516;-76
2023/09/05 07:16:02;;;;;;;;;7.67;7.67;;;;;22.00;81.51;101401.28;5130378;27;45320;-77
2023/09/05 07:18:27;;;;;;;;;7.33;7.33;;;;;22.03;80.44;101387.53;5126277;27;45232;-77
2023/09/05 07:20:53;;;;;;;;;11.00;8.67;;;;;22.12;80.83;101394.81;5130746;27;45264;-76
2023/09/05 07:23:18;;;;;;;;;11.33;8.00;;;;;22.24;81.69;101399.19;5123597;27;45361;-77
2023/09/05 07:25:43;;;;;;;;;9.00;9.00;;;;;22.25;80.33;101394.66;5138959;27;45230;-77
2023/09/05 07:28:10;;;;;;;;;10.33;8.00;;;;;22.35;80.12;101394.69;5119503;27;53390;-77
2023/09/05 07:30:35;;;;;;;;;10.33;10.33;;;;;22.53;80.74;101418.19;5123475;27;45251;-77
2023/09/05 07:33:01;;;;;;;;;5.67;5.67;;;;;22.55;79.23;101405.44;5134893;27;45363;-77
2023/09/05 07:35:26;;;;;;;;;7.00;6.67;;;;;22.66;77.78;101410.78;5135347;27;45192;-77
2023/09/05 07:37:51;;;;;;;;;10.33;8.00;;;;;22.75;77.12;101396.47;5119922;27;45755;-77
2023/09/05 07:40:17;;;;;;;;;8.67;8.00;;;;;22.87;77.41;101396.38;5136206;27;45009;-77
2023/09/05 07:42:42;;;;;;;;;11.00;9.00;;;;;22.86;75.84;101387.44;5127344;27;44814;-77
2023/09/05 07:45:13;;;;;;;;;8.00;7.00;;;;;22.97;76.63;101389.19;5134730;27;44688;-77
2023/09/05 07:47:38;;;;;;;;;6.67;6.00;;;;;23.09;75.50;101391.63;5125822;27;45499;-77
2023/09/05 07:50:04;;;;;;;;;10.67;5.67;;;;;23.18;74.22;101384.53;5133566;27;46087;-76
2023/09/05 07:52:32;;;;;;;;;10.00;10.00;;;;;23.27;75.24;101389.94;5133784;27;45311;-76
2023/09/05 07:54:58;;;;;;;;;8.67;7.00;;;;;23.44;74.82;101398.38;5132134;27;44776;-76
2023/09/05 07:57:23;;;;;;;;;9.33;9.33;;;;;23.57;73.71;101405.22;5137395;27;45312;-77
2023/09/05 07:59:49;;;;;;;;;7.00;7.00;;;;;23.72;75.38;101398.38;5132892;27;47102;-77
2023/09/05 08:02:14;;;;;;;;;6.67;6.67;;;;;23.84;73.09;101399.97;5113965;27;45405;-77
2023/09/05 08:04:40;;;;;;;;;9.67;9.00;;;;;23.91;71.79;101389.44;5113750;27;45656;-77
2023/09/05 08:07:06;;;;;;;;;8.67;6.67;;;;;24.06;72.79;101396.09;5127375;27;44720;-77
2023/09/05 08:09:32;;;;;;;;;7.00;7.00;;;;;24.17;71.67;101390.56;5128426;27;45105;-76
2023/09/05 08:11:57;;;;;;;;;9.00;7.67;;;;;24.23;70.76;101387.28;5124668;27;45479;-77
2023/09/05 08:14:22;;;;;;;;;11.00;8.33;;;;;24.36;70.06;101387.81;5116746;27;45289;-77
2023/09/05 08:16:48;;;;;;;;;7.33;7.33;;;;;24.59;71.11;101409.94;5133394;27;45383;-77
2023/09/05 08:19:14;;;;;;;;;7.67;7.00;;;;;24.71;71.10;101406.03;5135949;27;46018;-77
2023/09/05 08:21:39;;;;;;;;;8.00;7.00;;;;;24.81;67.70;101406.84;5128296;27;45389;-77
2023/09/05 08:24:04;;;;;;;;;7.00;7.00;;;;;24.81;70.00;101385.19;5114570;27;45316;-77
2023/09/05 08:26:33;;;;;;;;;11.67;7.33;;;;;25.03;68.67;101408.31;5122795;27;45307;-77
2023/09/05 08:28:58;;;;;;;;;11.67;8.00;;;;;24.81;68.29;101360.00;5114943;27;45361;-77
2023/09/05 08:31:24;;;;;;;;;6.33;6.33;;;;;25.19;67.60;101413.09;5111920;27;45326;-76
2023/09/05 08:33:50;;;;;;;;;7.33;7.33;;;;;25.28;68.00;101404.06;5120486;27;45416;-77
2023/09/05 08:36:15;;;;;;;;;8.00;8.00;;;;;25.34;66.72;101401.59;5114797;27;45395;-77
2023/09/05 08:38:40;;;;;;;;;7.67;7.00;;;;;25.40;67.48;101394.72;5129896;27;46441;-77
2023/09/05 08:41:06;;;;;;;;;9.67;8.67;;;;;25.60;68.81;101415.25;5127158;27;44704;-77
2023/09/05 08:43:33;;;;;;;;;9.00;7.33;;;;;25.69;64.75;101411.63;5127501;27;45541;-76
2023/09/05 08:46:02;;;;;;;;;7.33;6.00;;;;;25.73;67.09;101398.63;5142488;27;45870;-76
2023/09/05 08:48:28;;;;;;;;;7.67;6.67;;;;;25.78;64.45;101391.75;5109651;27;45368;-76
2023/09/05 08:50:55;;;;;;;;;7.00;5.67;;;;;25.91;66.28;101403.00;5120104;27;46420;-77
2023/09/05 08:53:28;;;;;;;;;11.33;7.33;;;;;26.00;65.53;101395.81;5118015;27;45196;-77
2023/09/05 08:55:55;;;;;;;;;8.00;8.00;;;;;26.24;63.60;101416.88;5120322;27;44855;-77
2023/09/05 08:58:21;;;;;;;;;9.67;6.67;;;;;26.08;67.02;101389.59;5127880;27;46544;-77
2023/09/05 09:00:47;;;;;;;;;9.33;8.67;;;;;26.41;63.50;101414.09;5127688;27;45379;-77
2023/09/05 09:03:12;;;;;;;;;7.33;7.33;;;;;26.46;62.41;101415.47;5124650;27;45438;-77
2023/09/05 09:05:37;;;;;;;;;7.67;7.67;;;;;26.47;62.33;101415.34;5128914;27;45353;-77
2023/09/05 09:08:04;;;;;;;;;8.67;7.00;;;;;26.66;66.10;101417.81;5117005;27;45299;-77
2023/09/05 09:10:29;;;;;;;;;8.00;6.00;;;;;26.81;64.42;101423.50;5114962;27;45426;-77
2023/09/05 09:13:13;;;;;;;;;8.00;7.33;;;;;26.83;61.12;101421.50;5127624;27;45403;-77
2023/09/05 09:15:41;;;;;;;;;11.33;10.00;;;;;26.98;63.39;101424.44;5113835;27;45269;-77
2023/09/05 09:18:12;;;;;;;;;8.00;6.67;;;;;27.01;62.89;101410.53;5123179;27;45257;-77
2023/09/05 09:20:45;;;;;;;;;8.00;7.67;;;;;27.12;62.71;101407.53;5126906;27;45369;-77
2023/09/05 09:23:11;;;;;;;;;8.33;8.33;;;;;27.32;63.29;101425.25;5119890;27;45612;-77
2023/09/05 09:25:46;;;;;;;;;10.33;8.33;;;;;27.39;61.12;101426.28;5112358;27;45385;-77
2023/09/05 09:28:23;;;;;;;;;6.67;6.67;;;;;27.50;61.51;101417.00;5108530;27;47411;-77
2023/09/05 09:30:58;;;;;;;;;11.67;10.33;;;;;27.61;62.59;101409.38;5133222;27;45432;-77
2023/09/05 09:33:24;;;;;;;;;11.00;9.33;;;;;27.70;59.96;101408.38;5102125;27;45484;-77
2023/09/05 09:36:01;;;;;;;;;8.00;8.00;;;;;27.75;59.66;101403.25;5115997;27;45407;-77
2023/09/05 09:38:28;;;;;;;;;8.33;7.00;;;;;27.83;59.42;101408.72;5113375;27;45504;-77
2023/09/05 09:40:55;;;;;;;;;10.00;9.00;;;;;27.92;59.29;101406.84;5116697;27;45719;-77
2023/09/05 09:43:20;;;;;;;;;12.33;10.67;;;;;28.01;60.39;101407.72;5102608;27;45321;-77
2023/09/05 09:45:46;;;;;;;;;9.33;8.00;;;;;28.07;60.33;101410.63;5104279;27;45299;-77
2023/09/05 09:48:15;;;;;;;;;8.33;8.00;;;;;28.15;59.83;101416.03;5106098;27;45567;-77
2023/09/05 09:50:43;;;;;;;;;10.33;10.33;;;;;27.84;57.51;101342.47;5103077;27;45552;-77
2023/09/05 09:53:12;;;;;;;;;6.00;6.00;;;;;28.25;57.59;101396.81;5108024;27;45372;-77
2023/09/05 09:55:42;;;;;;;;;8.33;8.33;;;;;28.22;58.80;101378.97;5107754;27;45381;-77
2023/09/05 09:58:13;;;;;;;;;10.33;10.33;;;;;28.32;56.01;101386.94;5123268;27;47402;-77
2023/09/05 10:00:45;;;;;;;;;8.00;8.00;;;;;28.38;56.87;101388.97;5114355;27;45228;-77
2023/09/05 10:03:13;;;;;;;;;10.00;8.33;;;;;28.46;56.88;101388.97;5105632;27;45491;-77
2023/09/05 10:05:41;;;;;;;;;10.00;7.33;;;;;28.59;58.63;101389.28;5117934;27;45303;-77
2023/09/05 10:08:09;;;;;;;;;8.00;7.00;;;;;28.66;58.16;101392.19;5112723;27;45579;-77
2023/09/05 10:10:41;;;;;;;;;8.00;8.00;;;;;28.68;56.72;101373.78;5122490;27;45389;-77
2023/09/05 10:13:10;;;;;;;;;6.67;6.67;;;;;28.76;55.68;101385.47;5115440;27;45397;-77
2023/09/05 10:15:36;;;;;;;;;9.33;9.33;;;;;28.85;57.28;101384.44;5106117;27;45449;-77
2023/09/05 10:18:05;;;;;;;;;10.00;9.00;;;;;28.87;56.55;101385.09;5109063;27;45463;-77
2023/09/05 10:20:33;;;;;;;;;8.33;8.33;;;;;28.89;57.37;101379.50;5114689;27;45719;-77
2023/09/05 10:22:58;;;;;;;;;8.67;7.67;;;;;28.81;56.21;101365.91;5111697;27;45580;-77
2023/09/05 10:25:26;;;;;;;;;8.00;7.00;;;;;29.03;56.02;101383.31;5104942;27;45485;-77
2023/09/05 10:27:52;;;;;;;;;13.67;13.00;;;;;29.09;56.13;101371.72;5114755;27;46965;-77
2023/09/05 10:30:19;;;;;;;;;10.67;9.33;;;;;29.14;55.19;101381.06;5110806;27;45448;-77
2023/09/05 10:32:47;;;;;;;;;30.33;27.00;;;;;29.24;55.58;101368.06;5118096;27;45486;-77
2023/09/05 10:35:17;;;;;;;;;22.00;20.00;;;;;29.33;56.17;101383.34;5104017;27;45561;-77
2023/09/05 10:37:49;;;;;;;;;11.67;9.33;;;;;29.32;54.43;101362.56;5108813;27;46047;-77
2023/09/05 10:40:16;;;;;;;;;8.00;8.00;;;;;29.43;53.99;101364.91;5112582;27;45539;-77
2023/09/05 10:42:50;;;;;;;;;14.00;11.00;;;;;29.44;55.22;101365.75;5115479;27;45439;-78
2023/09/05 10:45:29;;;;;;;;;10.33;10.33;;;;;29.39;54.24;101343.63;5111605;27;45490;-78
2023/09/05 10:48:01;;;;;;;;;11.00;9.00;;;;;29.55;54.54;101368.03;5114750;27;47930;-78
2023/09/05 10:50:26;;;;;;;;;9.67;8.33;;;;;29.64;53.67;101363.38;5124360;27;45358;-78
2023/09/05 10:53:12;;;;;;;;;9.67;8.33;;;;;29.68;54.92;101370.19;5109738;27;45423;-77
2023/09/05 10:55:44;;;;;;;;;11.33;10.00;;;;;29.68;53.42;101359.28;5126164;27;45664;-77
2023/09/05 10:58:36;;;;;;;;;10.00;10.00;;;;;29.75;54.59;101365.66;5116091;27;45950;-77
2023/09/05 11:01:01;;;;;;;;;10.00;8.00;;;;;29.72;51.64;101360.56;5115575;27;45246;-77
2023/09/05 11:03:36;;;;;;;;;11.33;10.33;;;;;29.73;53.34;101349.50;5118856;27;45452;-77
2023/09/05 11:06:11;;;;;;;;;10.33;9.33;;;;;29.78;53.04;101344.31;5121762;27;45626;-78
2023/09/05 11:08:37;;;;;;;;;8.00;6.00;;;;;29.88;54.08;101363.19;5121130;27;47291;-77
2023/09/05 11:11:04;;;;;;;;;9.33;8.33;;;;;29.95;51.29;101361.44;5117003;27;46964;-77
2023/09/05 11:13:30;;;;;;;;;9.67;9.67;;;;;29.99;51.89;101368.22;5113156;27;45385;-77
2023/09/05 11:16:01;;;;;;;;;8.33;8.33;;;;;30.06;53.06;101371.06;5114582;27;45449;-78
2023/09/05 11:18:26;;;;;;;;;8.00;7.00;;;;;30.06;51.02;101369.19;5121020;27;45734;-78
2023/09/05 11:20:52;;;;;;;;;9.00;8.00;;;;;30.14;52.91;101365.53;5109421;27;45782;-78